Time;durP1;ratioP1;P1;durP2;ratioP2;P2;SDS_P1;SDS_P2;PMS_P1;PMS_P2;Temp;Humidity;BMP_temperature;BMP_pressure;BME280_temperature;BME280_humidity;BME280_pressure;Samples;Min_cycle;Max_cycle;Signal;HPM_P1;HPM_P2
2022/10/17 00:00:25;;;;;;;15.77;12.07;;;15.30;99.90;;;;;;5039053;28;20474;-77
2022/10/17 00:02:50;;;;;;;16.55;12.63;;;15.30;99.90;;;;;;5035774;28;20379;-77
2022/10/17 00:05:16;;;;;;;16.17;11.80;;;15.30;99.90;;;;;;5032855;28;20527;-76
2022/10/17 00:07:42;;;;;;;18.50;13.38;;;15.30;99.90;;;;;;5031183;28;20470;-76
2022/10/17 00:10:08;;;;;;;20.42;13.60;;;15.40;99.90;;;;;;5031142;28;20445;-75
2022/10/17 00:12:34;;;;;;;20.23;13.32;;;15.40;99.90;;;;;;5030880;28;20466;-75
2022/10/17 00:15:02;;;;;;;19.53;13.00;;;15.30;99.90;;;;;;5029972;28;20505;-75
2022/10/17 00:17:28;;;;;;;15.48;12.60;;;15.40;99.90;;;;;;5034623;28;20478;-76
2022/10/17 00:19:53;;;;;;;24.10;13.13;;;15.50;99.90;;;;;;5035214;28;20824;-77
2022/10/17 00:22:19;;;;;;;17.37;13.77;;;15.40;99.90;;;;;;5035028;28;20752;-76
2022/10/17 00:24:44;;;;;;;19.60;13.40;;;15.40;99.90;;;;;;5034905;28;20489;-77
2022/10/17 00:27:10;;;;;;;20.92;13.10;;;15.40;99.90;;;;;;5033815;28;20391;-77
2022/10/17 00:29:35;;;;;;;16.13;12.77;;;15.40;99.90;;;;;;5034964;28;20533;-77
2022/10/17 00:32:01;;;;;;;15.87;11.90;;;15.50;99.90;;;;;;5034701;28;20387;-77
2022/10/17 00:34:28;;;;;;;14.03;11.13;;;15.50;99.90;;;;;;5034922;28;20383;-76
2022/10/17 00:36:54;;;;;;;18.50;13.00;;;15.60;99.90;;;;;;5035146;28;20871;-77
2022/10/17 00:39:19;;;;;;;16.00;12.07;;;15.60;99.90;;;;;;5034914;28;20473;-76
2022/10/17 00:41:45;;;;;;;14.73;10.90;;;15.60;99.90;;;;;;5034675;28;20421;-76
2022/10/17 00:44:28;;;;;;;22.25;12.20;;;15.60;99.90;;;;;;5034356;28;20402;-76
2022/10/17 00:46:55;;;;;;;14.05;11.38;;;15.70;99.90;;;;;;5034670;28;20398;-77
2022/10/17 00:49:23;;;;;;;14.38;11.30;;;15.70;99.90;;;;;;5034367;28;20415;-77
2022/10/17 00:51:52;;;;;;;17.17;12.30;;;15.70;99.90;;;;;;5034314;28;20379;-76
2022/10/17 00:54:24;;;;;;;20.27;11.52;;;15.70;99.90;;;;;;5034416;28;20414;-76
2022/10/17 00:56:53;;;;;;;20.27;13.95;;;15.70;99.90;;;;;;5034436;28;20387;-76
2022/10/17 00:59:21;;;;;;;17.15;12.80;;;15.70;99.90;;;;;;5034107;28;20402;-75
2022/10/17 01:02:01;;;;;;;20.75;12.18;;;15.70;99.90;;;;;;5034088;28;20398;-76
2022/10/17 01:04:26;;;;;;;16.60;12.95;;;15.70;99.90;;;;;;5033771;28;20910;-76
2022/10/17 01:06:52;;;;;;;13.73;11.20;;;15.70;99.90;;;;;;5036199;28;20395;-76
2022/10/17 01:09:17;;;;;;;17.40;10.80;;;15.70;99.90;;;;;;5037850;28;20403;-77
2022/10/17 01:12:01;;;;;;;13.75;11.27;;;15.70;99.90;;;;;;5039276;28;20449;-77
2022/10/17 01:14:40;;;;;;;17.17;12.60;;;15.70;99.90;;;;;;5032281;28;20402;-77
2022/10/17 01:17:34;;;;;;;15.02;11.98;;;15.70;99.90;;;;;;5032271;28;20418;-76
2022/10/17 01:20:15;;;;;;;17.50;11.50;;;15.70;99.90;;;;;;5029502;28;20405;-77
2022/10/17 01:22:48;;;;;;;17.25;10.20;;;15.70;99.90;;;;;;5014352;28;20431;-77
2022/10/17 01:25:38;;;;;;;17.80;12.43;;;15.70;99.90;;;;;;5015727;28;20415;-76
2022/10/17 01:28:36;;;;;;;14.45;12.18;;;15.80;99.90;;;;;;5014706;28;20727;-77
2022/10/17 01:31:43;;;;;;;15.90;10.90;;;15.80;99.90;;;;;;5016212;28;20866;-77
2022/10/17 01:34:19;;;;;;;20.65;11.75;;;15.80;99.90;;;;;;4996698;28;20477;-74
2022/10/17 01:37:01;;;;;;;14.52;10.60;;;15.80;99.90;;;;;;5033836;28;20445;-74
2022/10/17 01:39:41;;;;;;;14.68;11.23;;;15.80;99.90;;;;;;5033850;28;20379;-78
2022/10/17 01:42:30;;;;;;;19.48;12.65;;;15.80;99.90;;;;;;5033475;28;20383;-76
2022/10/17 01:44:55;;;;;;;15.93;12.18;;;15.80;99.90;;;;;;5033633;28;20437;-77
2022/10/17 01:47:26;;;;;;;17.83;12.00;;;15.80;99.90;;;;;;5033400;28;20848;-77
2022/10/17 01:49:54;;;;;;;19.38;13.73;;;15.80;99.90;;;;;;5033641;28;20944;-77
2022/10/17 01:52:28;;;;;;;16.42;12.10;;;15.80;99.90;;;;;;5033048;28;20384;-76
2022/10/17 01:55:04;;;;;;;20.58;12.82;;;15.80;99.90;;;;;;5033375;28;20383;-76
2022/10/17 01:57:41;;;;;;;17.50;11.70;;;15.80;99.90;;;;;;5033249;28;20736;-77
2022/10/17 02:00:13;;;;;;;17.52;11.90;;;15.80;99.90;;;;;;5033273;28;20896;-77
2022/10/17 02:02:42;;;;;;;16.92;12.40;;;15.70;99.90;;;;;;5033049;28;20471;-77
2022/10/17 02:05:08;;;;;;;20.50;11.15;;;15.80;99.90;;;;;;5032983;28;20497;-77
2022/10/17 02:07:34;;;;;;;20.67;12.05;;;15.70;99.90;;;;;;5032954;28;20740;-77
2022/10/17 02:10:00;;;;;;;15.17;10.90;;;15.70;99.90;;;;;;5033023;28;20383;-77
2022/10/17 02:12:40;;;;;;;17.80;11.63;;;15.70;99.90;;;;;;5032676;28;20461;-77
2022/10/17 02:15:20;;;;;;;17.05;12.02;;;15.70;99.90;;;;;;5033005;28;20423;-77
2022/10/17 02:18:13;;;;;;;14.10;10.60;;;15.70;99.90;;;;;;5033312;28;20790;-76
2022/10/17 02:20:59;;;;;;;15.30;11.55;;;15.80;99.90;;;;;;5032986;28;20435;-77
2022/10/17 02:23:44;;;;;;;18.23;12.63;;;15.70;99.90;;;;;;5032676;28;20403;-77
2022/10/17 02:26:14;;;;;;;15.40;10.20;;;15.70;99.90;;;;;;5032741;28;20379;-77
2022/10/17 02:29:07;;;;;;;17.27;11.25;;;15.70;99.90;;;;;;5032757;28;20860;-77
2022/10/17 02:31:41;;;;;;;14.95;10.80;;;15.70;99.90;;;;;;5033896;28;20375;-77
2022/10/17 02:34:20;;;;;;;16.52;11.18;;;15.80;99.90;;;;;;5047474;28;20447;-76
2022/10/17 02:36:50;;;;;;;16.13;12.13;;;15.70;99.90;;;;;;5037198;28;20874;-77
2022/10/17 02:39:19;;;;;;;17.45;11.00;;;15.70;99.90;;;;;;5031480;28;20986;-76
2022/10/17 02:41:45;;;;;;;13.38;11.48;;;15.70;99.90;;;;;;5032184;28;20406;-76
2022/10/17 02:44:11;;;;;;;18.65;11.60;;;15.70;99.90;;;;;;5032956;28;20410;-76
2022/10/17 02:46:40;;;;;;;17.70;11.25;;;15.70;99.90;;;;;;5032793;28;20409;-77
2022/10/17 02:49:24;;;;;;;17.35;10.57;;;15.70;99.90;;;;;;5033904;28;20461;-76
2022/10/17 02:52:16;;;;;;;14.48;10.13;;;15.70;99.90;;;;;;5032667;28;20387;-76
2022/10/17 02:54:44;;;;;;;19.30;10.83;;;15.80;99.90;;;;;;5032260;28;20398;-76
2022/10/17 02:57:32;;;;;;;17.75;11.95;;;15.70;99.90;;;;;;5032631;28;20397;-77
2022/10/17 03:00:00;;;;;;;17.73;9.63;;;15.70;99.90;;;;;;5033306;28;20452;-77
2022/10/17 03:02:26;;;;;;;15.43;11.18;;;15.80;99.90;;;;;;5032858;28;20864;-76
2022/10/17 03:04:52;;;;;;;14.07;10.35;;;15.80;99.90;;;;;;5032872;28;20414;-77
2022/10/17 03:07:17;;;;;;;13.10;10.97;;;15.80;99.90;;;;;;5030978;28;20383;-76
2022/10/17 03:09:43;;;;;;;15.00;10.60;;;15.80;99.90;;;;;;5031831;28;20393;-76
2022/10/17 03:12:08;;;;;;;17.20;10.23;;;15.70;99.90;;;;;;5031691;28;20455;-76
2022/10/17 03:14:34;;;;;;;15.13;11.18;;;15.80;99.90;;;;;;5031619;28;20391;-76
2022/10/17 03:17:00;;;;;;;15.63;10.50;;;15.80;99.90;;;;;;5031731;28;20397;-76
2022/10/17 03:19:25;;;;;;;15.93;10.93;;;15.80;99.90;;;;;;5031611;28;20426;-76
2022/10/17 03:21:51;;;;;;;14.43;10.50;;;15.80;99.90;;;;;;5031448;28;20422;-76
2022/10/17 03:24:16;;;;;;;15.02;10.45;;;15.80;99.90;;;;;;5030295;28;20525;-76
2022/10/17 03:26:42;;;;;;;14.70;9.93;;;15.80;99.90;;;;;;5031537;28;20388;-76
2022/10/17 03:29:07;;;;;;;16.40;10.33;;;15.80;99.90;;;;;;5031826;28;20385;-76
2022/10/17 03:31:33;;;;;;;16.40;11.47;;;15.90;99.90;;;;;;5031361;28;20476;-77
2022/10/17 03:34:00;;;;;;;14.90;11.10;;;15.90;99.90;;;;;;5031757;28;20433;-77
2022/10/17 03:36:26;;;;;;;15.93;11.10;;;15.80;99.90;;;;;;5032010;28;20451;-76
2022/10/17 03:38:55;;;;;;;17.75;10.50;;;15.90;99.90;;;;;;5030536;28;20419;-76
2022/10/17 03:41:20;;;;;;;14.32;10.00;;;15.80;99.90;;;;;;5032061;28;20391;-76
2022/10/17 03:43:46;;;;;;;10.43;8.80;;;15.90;99.90;;;;;;5030479;28;20899;-77
2022/10/17 03:46:12;;;;;;;14.32;11.63;;;15.90;99.90;;;;;;5031791;28;20406;-76
2022/10/17 03:48:37;;;;;;;16.13;10.20;;;15.90;99.90;;;;;;5030339;28;20375;-77
2022/10/17 03:51:06;;;;;;;16.53;9.83;;;16.00;99.90;;;;;;5030556;28;20429;-76
2022/10/17 03:53:32;;;;;;;19.00;9.02;;;16.00;99.90;;;;;;5031655;28;20397;-76
2022/10/17 03:56:11;;;;;;;12.68;9.05;;;16.00;99.90;;;;;;5031487;28;20375;-77
2022/10/17 03:58:37;;;;;;;16.67;9.82;;;16.10;99.90;;;;;;5045257;22;20431;-72
2022/10/17 04:01:04;;;;;;;14.40;9.30;;;16.10;99.90;;;;;;5030090;28;20756;-73
2022/10/17 04:03:30;;;;;;;14.07;9.30;;;16.10;99.90;;;;;;5031275;28;20422;-73
2022/10/17 04:06:01;;;;;;;17.75;9.90;;;16.10;99.90;;;;;;5030938;28;20474;-73
2022/10/17 04:08:26;;;;;;;12.35;9.02;;;16.20;99.90;;;;;;5030830;28;20367;-70
2022/10/17 04:10:56;;;;;;;13.77;8.95;;;16.10;99.90;;;;;;5030728;28;20434;-73
2022/10/17 04:13:22;;;;;;;12.80;9.90;;;16.20;99.90;;;;;;5031171;28;20444;-73
2022/10/17 04:16:03;;;;;;;12.23;9.50;;;16.10;99.90;;;;;;5031023;28;20395;-73
2022/10/17 04:18:30;;;;;;;17.35;10.60;;;16.10;99.90;;;;;;5030896;28;20451;-73
2022/10/17 04:20:55;;;;;;;12.95;9.80;;;16.10;99.90;;;;;;5030971;28;20387;-72
2022/10/17 04:23:21;;;;;;;11.77;8.60;;;16.10;99.90;;;;;;5031290;28;20875;-72
2022/10/17 04:25:47;;;;;;;15.50;8.90;;;16.00;99.90;;;;;;5029706;28;20394;-71
2022/10/17 04:28:13;;;;;;;14.43;9.40;;;16.00;99.90;;;;;;5030775;28;20892;-73
2022/10/17 04:30:39;;;;;;;11.82;8.80;;;16.00;99.90;;;;;;5030971;28;20391;-73
2022/10/17 04:33:04;;;;;;;14.07;9.18;;;16.00;99.90;;;;;;5030875;28;20974;-72
2022/10/17 04:35:30;;;;;;;14.18;9.20;;;16.00;99.90;;;;;;5031386;28;20387;-72
2022/10/17 04:37:55;;;;;;;13.00;9.60;;;16.00;99.90;;;;;;5030658;28;20919;-73
2022/10/17 04:40:21;;;;;;;13.20;8.87;;;16.10;99.90;;;;;;5031188;28;20930;-73
2022/10/17 04:42:47;;;;;;;16.67;10.80;;;16.10;99.90;;;;;;5043326;28;20887;-73
2022/10/17 04:45:12;;;;;;;17.42;9.32;;;16.10;99.90;;;;;;5039036;28;20398;-72
2022/10/17 04:47:38;;;;;;;15.60;9.27;;;16.20;99.90;;;;;;5038404;28;20442;-71
2022/10/17 04:50:04;;;;;;;10.43;9.27;;;16.10;99.90;;;;;;5032374;28;20430;-72
2022/10/17 04:52:30;;;;;;;13.60;8.93;;;16.20;99.90;;;;;;5030901;28;20858;-71
2022/10/17 04:54:56;;;;;;;15.32;8.70;;;16.30;99.90;;;;;;5031118;28;20414;-72
2022/10/17 04:57:22;;;;;;;11.93;9.38;;;16.30;99.90;;;;;;5030779;28;20434;-72
2022/10/17 04:59:48;;;;;;;15.43;8.82;;;16.40;99.90;;;;;;5031394;28;20464;-72
2022/10/17 05:02:13;;;;;;;12.07;8.60;;;16.40;99.90;;;;;;5031911;28;20470;-73
2022/10/17 05:04:39;;;;;;;16.77;9.10;;;16.30;99.90;;;;;;5037696;28;20410;-73
2022/10/17 05:07:04;;;;;;;15.00;8.70;;;16.40;99.90;;;;;;5038182;28;20756;-72
2022/10/17 05:09:30;;;;;;;14.30;7.93;;;16.40;99.90;;;;;;5037432;28;20881;-74
2022/10/17 05:11:55;;;;;;;14.90;8.90;;;16.40;99.90;;;;;;5037049;28;20392;-74
2022/10/17 05:14:21;;;;;;;15.17;9.00;;;16.30;99.90;;;;;;5035383;28;20466;-73
2022/10/17 05:16:46;;;;;;;17.02;10.40;;;16.40;99.90;;;;;;5042292;28;20387;-74
2022/10/17 05:19:12;;;;;;;14.73;10.03;;;16.40;99.90;;;;;;5046456;28;20398;-75
2022/10/17 05:21:38;;;;;;;14.20;9.00;;;16.40;99.90;;;;;;5047251;28;20413;-74
2022/10/17 05:24:08;;;;;;;13.00;9.30;;;16.40;99.90;;;;;;5045690;28;20399;-72
2022/10/17 05:26:34;;;;;;;14.40;9.55;;;16.40;99.90;;;;;;5046452;28;20387;-74
2022/10/17 05:29:04;;;;;;;16.57;9.47;;;16.40;99.90;;;;;;5048492;28;20507;-73
2022/10/17 05:31:30;;;;;;;15.30;9.33;;;16.40;99.90;;;;;;5047576;28;20386;-72
2022/10/17 05:34:01;;;;;;;10.18;8.07;;;16.30;99.90;;;;;;5040784;28;20810;-73
2022/10/17 05:36:26;;;;;;;15.18;8.88;;;16.40;99.90;;;;;;5036138;28;20391;-72
2022/10/17 05:38:52;;;;;;;17.65;10.13;;;16.40;99.90;;;;;;5036450;28;20413;-73
2022/10/17 05:41:19;;;;;;;15.65;9.10;;;16.40;99.90;;;;;;5037438;28;20394;-72
2022/10/17 05:43:44;;;;;;;15.85;9.25;;;16.30;99.90;;;;;;5042034;28;20434;-73
2022/10/17 05:46:10;;;;;;;14.80;9.20;;;16.40;99.90;;;;;;5041952;28;20394;-73
2022/10/17 05:48:36;;;;;;;12.70;8.45;;;16.40;99.90;;;;;;5036825;28;20437;-73
2022/10/17 05:51:07;;;;;;;16.70;8.73;;;16.40;99.90;;;;;;5036435;28;20476;-73
2022/10/17 05:53:35;;;;;;;11.75;8.10;;;16.40;99.90;;;;;;5035638;28;20883;-74
2022/10/17 05:56:03;;;;;;;12.90;8.40;;;16.30;99.90;;;;;;5036362;28;20782;-73
2022/10/17 05:58:29;;;;;;;15.60;9.50;;;16.20;99.90;;;;;;5034289;28;20921;-73
2022/10/17 06:01:11;;;;;;;17.63;11.50;;;16.20;99.90;;;;;;5105542;27;20728;-73
2022/10/17 06:03:36;;;;;;;13.23;9.13;;;16.20;99.90;;;;;;5089681;28;20393;-72
2022/10/17 06:06:04;;;;;;;16.70;10.35;;;16.10;99.90;;;;;;5089280;28;20777;-73
2022/10/17 06:08:30;;;;;;;15.23;9.30;;;16.10;99.90;;;;;;5088707;28;20375;-73
2022/10/17 06:10:55;;;;;;;14.63;8.23;;;16.20;99.90;;;;;;5089119;28;20432;-73
2022/10/17 06:13:21;;;;;;;16.47;10.47;;;16.20;99.90;;;;;;5090343;28;20450;-72
2022/10/17 06:15:46;;;;;;;11.70;8.70;;;16.20;99.90;;;;;;5096085;28;20398;-73
2022/10/17 06:18:12;;;;;;;14.57;8.60;;;16.30;99.90;;;;;;5096159;28;20378;-73
2022/10/17 06:20:38;;;;;;;12.35;9.60;;;16.30;99.90;;;;;;5097518;28;20413;-75
2022/10/17 06:23:04;;;;;;;11.18;9.25;;;16.30;99.90;;;;;;5099582;28;20720;-73
2022/10/17 06:25:31;;;;;;;22.75;11.30;;;16.40;99.90;;;;;;5104948;28;20387;-73
2022/10/17 06:27:56;;;;;;;12.90;9.17;;;16.50;99.90;;;;;;5101605;28;20387;-73
2022/10/17 06:30:22;;;;;;;11.60;8.73;;;16.50;99.90;;;;;;5104070;28;20402;-72
2022/10/17 06:32:47;;;;;;;14.82;8.60;;;16.70;99.90;;;;;;5102675;28;20394;-73
2022/10/17 06:35:13;;;;;;;15.75;9.27;;;16.70;99.90;;;;;;5102345;28;20394;-73
2022/10/17 06:37:38;;;;;;;13.73;8.63;;;16.80;99.90;;;;;;5101246;28;20798;-75
2022/10/17 06:40:07;;;;;;;13.40;9.37;;;16.80;99.90;;;;;;5100016;28;20415;-74
2022/10/17 06:42:33;;;;;;;12.60;8.23;;;16.70;99.90;;;;;;5099810;28;20809;-75
2022/10/17 06:44:59;;;;;;;16.30;9.20;;;16.80;99.90;;;;;;5097638;28;20482;-73
2022/10/17 06:47:24;;;;;;;14.68;9.20;;;16.80;99.90;;;;;;5097194;28;20855;-73
2022/10/17 06:49:50;;;;;;;14.47;9.27;;;16.90;99.90;;;;;;5097199;28;20399;-73
2022/10/17 06:52:16;;;;;;;12.20;8.53;;;16.90;99.90;;;;;;5096508;28;20378;-73
2022/10/17 06:54:43;;;;;;;14.82;8.43;;;17.00;99.90;;;;;;5096429;28;20382;-73
2022/10/17 06:57:08;;;;;;;12.82;8.60;;;17.00;99.90;;;;;;5096277;28;20397;-73
2022/10/17 06:59:34;;;;;;;15.00;8.70;;;17.10;99.30;;;;;;5095606;28;20434;-73
2022/10/17 07:02:00;;;;;;;10.75;7.40;;;17.10;98.40;;;;;;5100062;28;20378;-75
2022/10/17 07:04:26;;;;;;;15.18;8.40;;;17.10;97.80;;;;;;5102032;28;20736;-72
2022/10/17 07:06:52;;;;;;;14.50;8.05;;;17.20;97.40;;;;;;5101725;28;20832;-72
2022/10/17 07:09:18;;;;;;;13.50;7.90;;;17.20;96.70;;;;;;5095651;28;20375;-73
2022/10/17 07:11:44;;;;;;;17.70;8.60;;;17.20;96.10;;;;;;5087618;28;20390;-74
2022/10/17 07:14:09;;;;;;;11.40;7.70;;;17.30;94.30;;;;;;5084334;28;20386;-74
2022/10/17 07:16:35;;;;;;;13.37;8.30;;;17.40;92.20;;;;;;5091571;28;20451;-72
2022/10/17 07:19:01;;;;;;;20.15;10.18;;;17.50;90.70;;;;;;5092717;28;20399;-71
2022/10/17 07:21:26;;;;;;;18.05;8.50;;;17.60;90.10;;;;;;5092051;28;20386;-74
2022/10/17 07:23:52;;;;;;;16.13;8.70;;;17.70;88.70;;;;;;5087629;28;20418;-75
2022/10/17 07:26:18;;;;;;;10.00;7.97;;;17.80;86.30;;;;;;5085040;28;20380;-75
2022/10/17 07:28:45;;;;;;;14.13;8.07;;;17.80;87.20;;;;;;5083316;28;20455;-74
2022/10/17 07:31:16;;;;;;;12.18;7.53;;;17.80;86.70;;;;;;5083379;28;20471;-75
2022/10/17 07:33:43;;;;;;;14.10;8.48;;;17.90;85.10;;;;;;5083475;28;20375;-73
2022/10/17 07:36:08;;;;;;;11.65;8.05;;;17.90;83.60;;;;;;5082106;28;20384;-75
2022/10/17 07:38:35;;;;;;;18.30;9.27;;;18.00;81.50;;;;;;5081772;28;20395;-75
2022/10/17 07:41:03;;;;;;;13.70;8.35;;;18.10;81.70;;;;;;5081473;28;20440;-73
2022/10/17 07:43:30;;;;;;;14.63;7.80;;;18.10;80.30;;;;;;5082061;28;20384;-73
2022/10/17 07:45:55;;;;;;;16.90;7.55;;;18.20;79.50;;;;;;5080969;28;20396;-73
2022/10/17 07:48:23;;;;;;;16.90;8.00;;;18.20;78.40;;;;;;5081853;28;20386;-74
2022/10/17 07:50:49;;;;;;;17.43;8.70;;;18.20;77.80;;;;;;5081205;28;20406;-76
2022/10/17 07:53:15;;;;;;;16.30;8.00;;;18.30;76.50;;;;;;5081384;28;20498;-74
2022/10/17 07:55:42;;;;;;;12.75;7.18;;;18.40;75.30;;;;;;5081113;28;20771;-73
2022/10/17 07:58:08;;;;;;;11.20;6.65;;;18.60;73.20;;;;;;5079828;28;20783;-73
2022/10/17 08:00:35;;;;;;;12.00;6.68;;;18.60;73.50;;;;;;5081525;28;20403;-74
2022/10/17 08:03:00;;;;;;;11.25;7.13;;;18.60;72.10;;;;;;5081201;28;20433;-74
2022/10/17 08:05:27;;;;;;;12.93;8.30;;;18.60;72.20;;;;;;5084618;28;20380;-73
2022/10/17 08:07:53;;;;;;;15.13;6.93;;;18.80;70.60;;;;;;5086026;28;20402;-72
2022/10/17 08:10:19;;;;;;;15.67;7.37;;;18.80;69.50;;;;;;5084863;28;20764;-76
2022/10/17 08:12:44;;;;;;;11.57;6.00;;;19.00;68.10;;;;;;5081172;28;20387;-75
2022/10/17 08:15:10;;;;;;;16.40;6.97;;;19.10;66.60;;;;;;5080319;28;20384;-73
2022/10/17 08:17:37;;;;;;;12.45;6.85;;;19.20;65.40;;;;;;5081147;28;20384;-73
2022/10/17 08:20:04;;;;;;;12.63;6.53;;;19.40;64.50;;;;;;5080384;28;20780;-74
2022/10/17 08:22:30;;;;;;;9.10;6.13;;;19.70;62.50;;;;;;5079239;28;20434;-73
2022/10/17 08:24:56;;;;;;;8.48;6.47;;;19.90;57.80;;;;;;5082101;28;20474;-73
2022/10/17 08:27:22;;;;;;;13.30;5.65;;;20.10;56.40;;;;;;5081486;28;20430;-75
2022/10/17 08:29:51;;;;;;;9.15;6.00;;;20.00;55.30;;;;;;5081921;28;20791;-74
2022/10/17 08:32:21;;;;;;;15.65;6.60;;;20.00;55.20;;;;;;5081500;28;20395;-74
2022/10/17 08:34:47;;;;;;;12.07;6.82;;;20.00;56.50;;;;;;5081178;28;20384;-74
2022/10/17 08:37:14;;;;;;;9.07;5.88;;;19.80;57.50;;;;;;5080803;28;20378;-74
2022/10/17 08:39:43;;;;;;;10.43;6.30;;;19.80;57.60;;;;;;5081470;28;20404;-74
2022/10/17 08:42:08;;;;;;;12.65;6.50;;;19.90;57.00;;;;;;5081085;28;20413;-72
2022/10/17 08:44:46;;;;;;;19.03;6.47;;;20.00;56.70;;;;;;5079075;28;20376;-73
2022/10/17 08:47:25;;;;;;;15.52;6.18;;;20.10;54.60;;;;;;5079243;28;20745;-73
2022/10/17 08:49:56;;;;;;;12.53;6.40;;;20.10;54.20;;;;;;5079779;28;20380;-74
2022/10/17 08:52:43;;;;;;;14.70;6.05;;;20.30;53.60;;;;;;5080311;28;20386;-73
2022/10/17 08:55:23;;;;;;;9.85;5.55;;;20.30;52.00;;;;;;5079024;28;20390;-74
2022/10/17 08:57:49;;;;;;;9.07;5.55;;;20.40;51.70;;;;;;5078615;28;20884;-72
2022/10/17 09:00:18;;;;;;;10.13;5.70;;;20.40;51.20;;;;;;5079434;28;20446;-74
2022/10/17 09:02:53;;;;;;;10.93;6.17;;;20.40;51.70;;;;;;5077938;28;20779;-74
2022/10/17 09:05:31;;;;;;;15.70;6.90;;;20.40;51.80;;;;;;5078839;28;20380;-73
2022/10/17 09:08:18;;;;;;;15.57;6.45;;;20.50;51.30;;;;;;5080552;28;20368;-71
2022/10/17 09:10:53;;;;;;;10.23;5.80;;;20.60;50.50;;;;;;5081406;28;20407;-74
2022/10/17 09:13:38;;;;;;;10.32;5.97;;;20.60;49.50;;;;;;5081056;28;20376;-73
2022/10/17 09:16:18;;;;;;;11.82;6.90;;;20.80;49.00;;;;;;5081487;28;20399;-73
2022/10/17 09:18:58;;;;;;;11.13;6.13;;;20.90;48.60;;;;;;5081234;28;20383;-73
2022/10/17 09:21:41;;;;;;;11.15;6.30;;;21.00;48.40;;;;;;5081170;28;20387;-73
2022/10/17 09:24:13;;;;;;;13.73;6.35;;;21.30;47.70;;;;;;5081158;28;20376;-74
2022/10/17 09:26:40;;;;;;;15.25;5.97;;;21.60;44.90;;;;;;5079788;28;20384;-73
2022/10/17 09:29:16;;;;;;;14.13;5.75;;;21.80;42.20;;;;;;5079451;28;20391;-74
2022/10/17 09:31:47;;;;;;;9.57;5.55;;;21.90;42.00;;;;;;5078429;28;20387;-74
2022/10/17 09:34:14;;;;;;;11.27;5.70;;;21.90;41.60;;;;;;5081241;28;20387;-73
2022/10/17 09:36:41;;;;;;;14.70;6.30;;;21.90;41.50;;;;;;5080563;28;20376;-73
2022/10/17 09:39:13;;;;;;;7.30;5.17;;;21.90;40.70;;;;;;5079973;28;20418;-73
2022/10/17 09:41:46;;;;;;;14.17;6.30;;;21.80;41.20;;;;;;5079414;28;20910;-74
2022/10/17 09:44:16;;;;;;;11.77;5.50;;;21.70;41.50;;;;;;5078143;28;20388;-74
2022/10/17 09:47:01;;;;;;;12.52;5.80;;;21.60;41.50;;;;;;5078105;28;20413;-73
2022/10/17 09:49:38;;;;;;;10.30;5.80;;;21.50;42.50;;;;;;5079454;28;20744;-73
2022/10/17 09:52:09;;;;;;;10.27;5.72;;;21.50;43.10;;;;;;5081583;28;20399;-73
2022/10/17 09:54:43;;;;;;;13.48;5.43;;;21.50;43.20;;;;;;5085630;28;20380;-72
2022/10/17 09:57:11;;;;;;;13.13;5.72;;;21.50;43.00;;;;;;5083312;28;20464;-72
2022/10/17 09:59:46;;;;;;;10.48;5.75;;;21.50;43.50;;;;;;5081381;28;20403;-74
2022/10/17 10:02:11;;;;;;;14.07;5.95;;;21.50;42.90;;;;;;5078161;28;20368;-74
2022/10/17 10:04:59;;;;;;;10.05;5.95;;;21.40;43.20;;;;;;5077760;28;20487;-74
2022/10/17 10:07:30;;;;;;;13.55;6.00;;;21.40;44.00;;;;;;5077454;28;20375;-73
2022/10/17 10:09:57;;;;;;;16.87;5.70;;;21.30;44.00;;;;;;5076450;28;20402;-74
2022/10/17 10:12:24;;;;;;;13.68;5.70;;;21.10;44.70;;;;;;5077123;28;20984;-73
2022/10/17 10:14:50;;;;;;;15.25;5.80;;;21.00;45.30;;;;;;5077764;28;20913;-74
2022/10/17 10:17:27;;;;;;;12.03;5.50;;;21.00;46.20;;;;;;5076864;28;20383;-74
2022/10/17 10:19:53;;;;;;;11.30;5.90;;;21.00;45.60;;;;;;5077960;28;20538;-73
2022/10/17 10:22:22;;;;;;;10.40;6.85;;;20.80;47.90;;;;;;5077839;28;20419;-74
2022/10/17 10:25:09;;;;;;;9.70;6.07;;;20.80;48.00;;;;;;5078815;28;20513;-74
2022/10/17 10:27:35;;;;;;;9.32;5.60;;;20.90;47.40;;;;;;5078375;28;20452;-75
2022/10/17 10:30:02;;;;;;;20.73;6.68;;;21.10;46.10;;;;;;5078269;28;20383;-73
2022/10/17 10:32:36;;;;;;;13.17;6.13;;;21.30;46.10;;;;;;5079200;28;20429;-73
2022/10/17 10:35:46;;;;;;;11.68;6.03;;;21.40;45.30;;;;;;5079535;28;20455;-73
2022/10/17 10:38:15;;;;;;;17.08;6.10;;;21.40;45.50;;;;;;5053786;28;20392;-73
2022/10/17 10:40:51;;;;;;;12.80;6.68;;;21.50;44.90;;;;;;5078740;28;20499;-74
2022/10/17 10:43:35;;;;;;;11.45;5.45;;;21.60;45.00;;;;;;5078102;28;20384;-75
2022/10/17 10:46:15;;;;;;;12.90;6.07;;;21.60;44.00;;;;;;5078533;28;20447;-75
2022/10/17 10:48:52;;;;;;;14.05;5.75;;;21.70;43.10;;;;;;5079809;28;20419;-74
2022/10/17 10:51:23;;;;;;;12.98;5.55;;;21.70;42.80;;;;;;5082156;28;20399;-73
2022/10/17 10:53:54;;;;;;;14.90;5.93;;;21.60;42.90;;;;;;5081804;28;20412;-73
2022/10/17 10:56:43;;;;;;;14.60;6.00;;;21.60;43.70;;;;;;5081375;28;20423;-74
2022/10/17 10:59:11;;;;;;;17.60;5.85;;;21.60;44.00;;;;;;5079508;28;22412;-75
2022/10/17 11:01:52;;;;;;;11.05;5.70;;;21.60;43.50;;;;;;5081652;28;20396;-75
2022/10/17 11:04:51;;;;;;;15.05;6.28;;;21.50;43.90;;;;;;5081685;28;20387;-75
2022/10/17 11:07:30;;;;;;;12.52;6.47;;;21.40;44.90;;;;;;5080765;28;20384;-76
2022/10/17 11:10:09;;;;;;;33.28;9.35;;;21.30;46.30;;;;;;5081654;28;20387;-73
2022/10/17 11:12:47;;;;;;;14.75;6.20;;;21.20;47.50;;;;;;5082607;28;20414;-75
2022/10/17 11:15:33;;;;;;;11.98;5.90;;;21.20;47.10;;;;;;5082377;28;20455;-74
2022/10/17 11:18:01;;;;;;;12.85;6.22;;;21.10;47.70;;;;;;5083384;28;20387;-74
2022/10/17 11:20:46;;;;;;;13.23;6.45;;;21.10;48.40;;;;;;5087686;28;20425;-72
2022/10/17 11:23:25;;;;;;;14.73;7.35;;;21.10;49.50;;;;;;5086839;28;20856;-73
2022/10/17 11:25:53;;;;;;;15.02;7.18;;;21.10;50.10;;;;;;5087233;28;20458;-73
2022/10/17 11:28:21;;;;;;;10.93;6.70;;;21.20;50.90;;;;;;5084006;28;20391;-73
2022/10/17 11:30:54;;;;;;;13.40;6.70;;;21.20;51.70;;;;;;5086666;28;20451;-71
2022/10/17 11:33:33;;;;;;;16.65;6.75;;;21.10;52.10;;;;;;5083319;28;20383;-74
2022/10/17 11:36:04;;;;;;;13.43;6.67;;;21.10;52.50;;;;;;5082377;28;20834;-73
2022/10/17 11:38:46;;;;;;;11.82;6.15;;;21.00;53.50;;;;;;5083208;28;20391;-74
2022/10/17 11:41:17;;;;;;;10.02;5.95;;;21.10;53.90;;;;;;5080533;28;20406;-74
2022/10/17 11:44:17;;;;;;;13.77;6.40;;;21.10;53.40;;;;;;5082045;28;20414;-72
2022/10/17 11:46:47;;;;;;;12.63;7.00;;;21.30;53.60;;;;;;5060678;28;20808;-74
2022/10/17 11:49:18;;;;;;;17.63;7.00;;;21.40;53.40;;;;;;5081631;28;20384;-74
2022/10/17 11:51:56;;;;;;;17.63;6.63;;;21.50;51.80;;;;;;5081638;28;20380;-76
2022/10/17 11:54:36;;;;;;;18.03;7.27;;;21.60;51.10;;;;;;5080439;28;20388;-74
2022/10/17 11:57:16;;;;;;;15.60;6.93;;;21.70;50.30;;;;;;5080721;28;20380;-74
2022/10/17 11:59:44;;;;;;;12.40;7.27;;;21.80;50.60;;;;;;5081921;28;20411;-74
2022/10/17 12:02:24;;;;;;;15.95;7.15;;;21.80;50.80;;;;;;5083557;28;20376;-73
2022/10/17 12:05:17;;;;;;;16.83;8.10;;;21.80;51.00;;;;;;5082434;28;20467;-75
2022/10/17 12:08:02;;;;;;;27.85;7.55;;;21.70;51.20;;;;;;5081720;28;20663;-73
2022/10/17 12:10:48;;;;;;;19.20;7.10;;;21.50;52.20;;;;;;5081848;28;20410;-73
2022/10/17 12:13:26;;;;;;;18.42;7.40;;;21.30;53.30;;;;;;5082341;28;20390;-73
2022/10/17 12:15:53;;;;;;;18.73;7.50;;;21.30;54.10;;;;;;5073990;28;20482;-73
2022/10/17 12:18:18;;;;;;;15.70;6.70;;;21.20;54.80;;;;;;5072517;28;20431;-73
2022/10/17 12:20:58;;;;;;;11.57;6.90;;;21.10;56.50;;;;;;5072537;28;20428;-73
2022/10/17 12:23:29;;;;;;;11.23;7.15;;;21.10;57.10;;;;;;5072804;28;20484;-73
2022/10/17 12:26:03;;;;;;;13.63;7.32;;;21.00;59.10;;;;;;5072580;28;20467;-74
2022/10/17 12:28:40;;;;;;;18.10;7.60;;;20.90;58.90;;;;;;5072453;28;20379;-72
2022/10/17 12:31:24;;;;;;;13.45;7.32;;;21.00;61.10;;;;;;5072118;28;20471;-73
2022/10/17 12:33:55;;;;;;;13.88;7.28;;;21.10;59.50;;;;;;5072304;28;20395;-71
2022/10/17 12:36:21;;;;;;;15.50;6.73;;;21.00;58.80;;;;;;5072377;28;20407;-72
2022/10/17 12:39:13;;;;;;;13.43;6.80;;;20.80;60.00;;;;;;5072397;28;20391;-73
2022/10/17 12:41:38;;;;;;;18.60;8.18;;;20.70;60.60;;;;;;5071902;28;20394;-73
2022/10/17 12:44:13;;;;;;;12.00;6.78;;;20.60;61.10;;;;;;5072135;28;20387;-73
2022/10/17 12:47:09;;;;;;;13.75;7.50;;;20.50;62.50;;;;;;5072123;28;20412;-73
2022/10/17 12:49:37;;;;;;;13.68;8.27;;;20.50;63.80;;;;;;5071654;28;20441;-72
2022/10/17 12:52:26;;;;;;;11.15;7.45;;;20.60;62.40;;;;;;5071677;28;20378;-72